Toledo, España

12:50 AM CET en Noviembre 24, 2014 (GMT +0100)
FV Toledo PV | Change Station
CLOSE
Current Station
Estación meteorológica personal
Location: Puebal De Montalban, TOLEDO
Altura: 1413 ft
Estaciones meteorológicas cercanas

Alt 1413 ft 39.83 °N, 4.29 °W | Updated 46 seconds ago

Mostly Cloudy
Muy nublado
97.2 ° F
Sensación térmica 92 ° F
N
0.0
Viento Variable Viento desde Norte
Gusts 0.0 mph

Hoy
Alta -- | Baja -- ° F
--% Posibilidad de precipitaciones
Ayer
Alta -- | Baja -- ° F
Precip. -- pul
8:10 AM 5:54 PM
Creciente, 3% visible
Presión 30.01 pul
Visibilidad 6.2 Millas
Nubes Muy nublado 7000 ft
Índice de calor 92 ° F
Punto de rocío 36 ° F
Humedad 12%
Precipitaciones 0.00 pul
Espesor de la nieve No disponible.
UV 0 de una escala de 12
Polen No disponible.
Calidad del aire No disponible.
Flu Activity No disponible.
METAR LEMD 232330Z 01003KT 350V050 9999 BKN070 13/11 Q1016 NOSIG

More Conditions Fewer Conditions

Presión 30.01 pul
Visibilidad 6.2 Millas
Nubes Muy nublado 7000 ft
Índice de calor 92 ° F
Punto de rocío 36 ° F
Humedad 12%
Precipitaciones 0.00 pul
Espesor de la nieve No disponible.
UV 0 de una escala de 12
Polen No disponible.
Calidad del aire No disponible.
Flu Activity No disponible.
METAR LEMD 232330Z 01003KT 350V050 9999 BKN070 13/11 Q1016 NOSIG

More Conditions Fewer Conditions

10-Day Weather Forecast

Almanac

Astronomía

Nov. 24, 2014 Salida Puesta
Hora real
Crepúsculo civil
Crepúsculo náutico
Crepúsculo astronómico
Luna
Horas de luz
Horas de luz
Tomorrow will be .
, % of the Moon is Illuminated

Extremos de hoy

Máximos del país Bajas del país

Community

WunderPhotos

Upload Photos

1,773,211 ¡fotos cargadas!

WunderBlogs® & News

Nearby

Calidad del aire

  Calidad del aire Índice AQ Contaminante
Not available.

Grosos de nieve

Estación Profundido Altura

Actividad de terremotos

Ciudad Distance Mag. Tiempo y dato
Magnitud mínima muestra es 2,5.

Temperaturas de aguas costeras

Lugar Temperatura

Estaciones meteorológicas cercanas